createdAt,value
2023-02-09T00:01:42.040Z,102610.06
2023-02-09T00:04:12.141Z,102617.63
2023-02-09T00:06:38.762Z,102605.63
2023-02-09T00:09:05.395Z,102601.41
2023-02-09T00:11:50.997Z,102610.31
2023-02-09T00:14:21.518Z,102596.75
2023-02-09T00:16:49.051Z,102609.34
2023-02-09T00:19:15.789Z,102604.31
2023-02-09T00:21:42.757Z,102599.88
2023-02-09T00:24:12.992Z,102605.50
2023-02-09T00:26:40.486Z,102600.28
2023-02-09T00:29:07.964Z,102592.72
2023-02-09T00:31:34.999Z,102591.88
2023-02-09T00:34:02.136Z,102590.44
2023-02-09T00:36:31.068Z,102584.00
2023-02-09T00:39:00.250Z,102587.38
2023-02-09T00:41:45.144Z,102590.81
2023-02-09T00:44:12.497Z,102590.69
2023-02-09T00:46:39.407Z,102591.72
2023-02-09T00:49:06.320Z,102590.34
2023-02-09T00:51:33.107Z,102597.63
2023-02-09T00:54:01.897Z,102593.41
2023-02-09T00:56:28.498Z,102596.28
2023-02-09T00:58:55.149Z,102594.91
2023-02-09T01:01:21.884Z,102593.31
2023-02-09T01:03:48.481Z,102590.75
2023-02-09T01:06:17.478Z,102591.34
2023-02-09T01:08:44.090Z,102593.66
2023-02-09T01:11:13.706Z,102595.44
2023-02-09T01:13:41.711Z,102600.72
2023-02-09T01:16:09.864Z,102591.78
2023-02-09T01:18:38.456Z,102584.06
2023-02-09T01:21:13.781Z,102586.97
2023-02-09T01:23:40.546Z,102582.34
2023-02-09T01:26:08.801Z,102582.31
2023-02-09T01:28:36.262Z,102586.53
2023-02-09T01:31:06.389Z,102586.53
2023-02-09T01:33:33.217Z,102592.81
2023-02-09T01:36:04.825Z,102590.97
2023-02-09T01:38:31.388Z,102601.38
2023-02-09T01:40:58.000Z,102604.03
2023-02-09T01:43:24.702Z,102593.22
2023-02-09T01:45:56.197Z,102594.78
2023-02-09T01:48:28.946Z,102592.16
2023-02-09T01:50:58.627Z,102586.47
2023-02-09T01:53:26.458Z,102586.44
2023-02-09T01:56:04.600Z,102587.00
2023-02-09T01:58:32.146Z,102585.66
2023-02-09T02:01:00.135Z,102576.06
2023-02-09T02:03:27.923Z,102581.38
2023-02-09T02:06:11.831Z,102576.34
2023-02-09T02:08:42.678Z,102578.69
2023-02-09T02:11:11.241Z,102584.44
2023-02-09T02:13:38.276Z,102589.59
2023-02-09T02:16:14.753Z,102593.31
2023-02-09T02:18:53.433Z,102591.56
2023-02-09T02:21:26.009Z,102595.50
2023-02-09T02:23:58.653Z,102590.13
2023-02-09T02:26:41.206Z,102588.75
2023-02-09T02:29:21.992Z,102578.09
2023-02-09T02:32:03.707Z,102582.72
2023-02-09T02:34:49.492Z,102579.13
2023-02-09T02:37:28.353Z,102584.03
2023-02-09T02:40:31.871Z,102589.25
2023-02-09T02:43:08.237Z,102587.31
2023-02-09T02:45:43.995Z,102586.75
2023-02-09T02:48:34.988Z,102580.22
2023-02-09T02:51:08.408Z,102586.06
2023-02-09T02:53:36.872Z,102584.75
2023-02-09T02:56:12.378Z,102585.84
2023-02-09T02:58:38.982Z,102587.59
2023-02-09T03:01:08.246Z,102583.06
2023-02-09T03:03:36.162Z,102579.34
2023-02-09T03:06:06.954Z,102586.94
2023-02-09T03:08:50.674Z,102582.38
2023-02-09T03:11:19.436Z,102577.84
2023-02-09T03:13:51.903Z,102579.31
2023-02-09T03:16:21.543Z,102575.63
2023-02-09T03:18:59.633Z,102582.09
2023-02-09T03:21:29.409Z,102583.41
2023-02-09T03:23:59.746Z,102578.03
2023-02-09T03:26:33.162Z,102582.09
2023-02-09T03:29:00.413Z,102579.41
2023-02-09T03:31:27.995Z,102577.06
2023-02-09T03:33:57.174Z,102578.06
2023-02-09T03:36:24.450Z,102573.88
2023-02-09T03:38:51.021Z,102575.63
2023-02-09T03:41:17.646Z,102570.84
2023-02-09T03:44:02.858Z,102568.53
2023-02-09T03:46:29.862Z,102564.31
2023-02-09T03:48:56.473Z,102566.38
2023-02-09T03:51:23.085Z,102554.16
2023-02-09T03:53:49.754Z,102552.41
2023-02-09T03:56:16.463Z,102551.75
2023-02-09T03:58:43.057Z,102553.91
2023-02-09T04:01:10.929Z,102549.41
2023-02-09T04:03:39.680Z,102543.34
2023-02-09T04:06:07.223Z,102545.31
2023-02-09T04:08:33.903Z,102543.03
2023-02-09T04:11:00.559Z,102546.13
2023-02-09T04:13:27.302Z,102545.94
2023-02-09T04:15:54.106Z,102545.16
2023-02-09T04:18:20.769Z,102533.69
2023-02-09T04:20:47.665Z,102533.84
2023-02-09T04:23:15.271Z,102534.28
2023-02-09T04:25:42.052Z,102539.28
2023-02-09T04:28:08.961Z,102540.94
2023-02-09T04:30:35.652Z,102539.81
2023-02-09T04:33:04.617Z,102531.00
2023-02-09T04:35:31.269Z,102527.84
2023-02-09T04:37:57.841Z,102519.97
2023-02-09T04:40:24.401Z,102519.19
2023-02-09T04:42:50.966Z,102515.78
2023-02-09T04:45:17.644Z,102518.59
2023-02-09T04:47:44.279Z,102519.34
2023-02-09T04:50:11.283Z,102522.34
2023-02-09T04:52:37.855Z,102517.63
2023-02-09T04:55:04.724Z,102512.44
2023-02-09T04:57:50.206Z,102510.72
2023-02-09T05:00:17.015Z,102521.50
2023-02-09T05:02:43.591Z,102521.59
2023-02-09T05:05:10.238Z,102522.56
2023-02-09T05:07:36.810Z,102517.38
2023-02-09T05:10:04.030Z,102525.31
2023-02-09T05:12:30.627Z,102517.59
2023-02-09T05:14:57.252Z,102523.91
2023-02-09T05:17:23.906Z,102520.41
2023-02-09T05:19:50.500Z,102535.09
2023-02-09T05:22:17.103Z,102524.53
2023-02-09T05:24:43.697Z,102527.16
2023-02-09T05:27:10.306Z,102522.38
2023-02-09T05:29:36.890Z,102526.94
2023-02-09T05:32:07.450Z,102519.91
2023-02-09T05:34:36.992Z,102517.94
2023-02-09T05:37:03.554Z,102510.78
2023-02-09T05:39:30.155Z,102500.47
2023-02-09T05:42:15.389Z,102494.03
2023-02-09T05:44:42.665Z,102483.28
2023-02-09T05:47:09.337Z,102481.00
2023-02-09T05:49:35.954Z,102486.47
2023-02-09T05:52:02.554Z,102497.47
2023-02-09T05:54:29.253Z,102495.41
2023-02-09T05:56:55.825Z,102481.69
2023-02-09T05:59:23.179Z,102486.81
2023-02-09T06:01:50.281Z,102494.13
2023-02-09T06:04:16.877Z,102508.25
2023-02-09T06:06:43.577Z,102503.16
2023-02-09T06:09:10.895Z,102506.09
2023-02-09T06:11:37.514Z,102512.06
2023-02-09T06:14:04.287Z,102519.25
2023-02-09T06:16:31.089Z,102524.16
2023-02-09T06:18:57.866Z,102526.28
2023-02-09T06:21:24.624Z,102533.50
2023-02-09T06:23:51.349Z,102539.63
2023-02-09T06:26:18.980Z,102521.88
2023-02-09T06:28:46.006Z,102514.47
2023-02-09T06:31:12.735Z,102512.28
2023-02-09T06:33:40.188Z,102518.09
2023-02-09T06:36:07.856Z,102515.00
2023-02-09T06:38:35.609Z,102514.88
2023-02-09T06:41:02.258Z,102528.41
2023-02-09T06:43:28.926Z,102530.78
2023-02-09T06:45:55.552Z,102530.13
2023-02-09T06:48:24.355Z,102534.63
2023-02-09T06:50:50.997Z,102543.78
2023-02-09T06:53:18.664Z,102549.66
2023-02-09T06:55:45.355Z,102550.16
2023-02-09T06:58:11.920Z,102543.41
2023-02-09T07:00:38.541Z,102534.56
2023-02-09T07:03:05.278Z,102545.44
2023-02-09T07:05:32.099Z,102540.66
2023-02-09T07:07:58.814Z,102545.81
2023-02-09T07:10:25.529Z,102547.53
2023-02-09T07:12:52.040Z,102545.13
2023-02-09T07:15:18.810Z,102538.03
2023-02-09T07:17:45.405Z,102551.44
2023-02-09T07:20:15.433Z,102547.91
2023-02-09T07:22:42.093Z,102556.69
2023-02-09T07:25:08.827Z,102563.91
2023-02-09T07:27:35.894Z,102559.06
2023-02-09T07:30:02.561Z,102558.69
2023-02-09T07:32:29.317Z,102553.22
2023-02-09T07:34:56.017Z,102552.44
2023-02-09T07:37:22.629Z,102541.25
2023-02-09T07:39:49.334Z,102540.38
2023-02-09T07:42:16.126Z,102540.53
2023-02-09T07:44:57.741Z,102540.88
2023-02-09T07:47:24.401Z,102549.81
2023-02-09T07:49:51.018Z,102556.03
2023-02-09T07:52:17.626Z,102547.50
2023-02-09T07:54:44.214Z,102538.78
2023-02-09T07:57:13.112Z,102547.75
2023-02-09T07:59:39.722Z,102548.25
2023-02-09T08:02:07.472Z,102547.69
2023-02-09T08:04:34.128Z,102553.28
2023-02-09T08:07:00.817Z,102561.25
2023-02-09T08:09:28.882Z,102569.28
2023-02-09T08:12:03.381Z,102574.28
2023-02-09T08:14:36.413Z,102567.06
2023-02-09T08:17:23.174Z,102574.34
2023-02-09T08:20:01.109Z,102583.59
2023-02-09T08:22:30.475Z,102582.59
2023-02-09T08:24:58.143Z,102586.19
2023-02-09T08:27:24.897Z,102585.31
2023-02-09T08:29:51.857Z,102587.50
2023-02-09T08:32:18.565Z,102596.78
2023-02-09T08:34:45.203Z,102600.09
2023-02-09T08:37:11.775Z,102593.97
2023-02-09T08:39:38.346Z,102601.19
2023-02-09T08:42:07.022Z,102604.09
2023-02-09T08:44:33.668Z,102603.38
2023-02-09T08:47:00.477Z,102604.31
2023-02-09T08:49:28.031Z,102601.72
2023-02-09T08:51:54.697Z,102596.78
2023-02-09T08:54:21.296Z,102600.72
2023-02-09T08:56:47.959Z,102594.50
2023-02-09T08:59:14.568Z,102614.63
2023-02-09T09:01:42.367Z,102604.44
2023-02-09T09:04:09.866Z,102610.94
2023-02-09T09:06:36.875Z,102614.41
2023-02-09T09:09:03.942Z,102606.63
2023-02-09T09:11:30.724Z,102611.63
2023-02-09T09:13:58.063Z,102623.34
2023-02-09T09:16:24.719Z,102624.03
2023-02-09T09:18:51.377Z,102613.66
2023-02-09T09:21:18.973Z,102616.44
2023-02-09T09:23:46.370Z,102629.72
2023-02-09T09:26:13.532Z,102634.22
2023-02-09T09:28:40.130Z,102633.66
2023-02-09T09:31:10.864Z,102630.97
2023-02-09T09:33:38.014Z,102623.47
2023-02-09T09:36:06.014Z,102624.72
2023-02-09T09:38:36.981Z,102621.88
2023-02-09T09:41:04.971Z,102617.13
2023-02-09T09:43:33.944Z,102615.66
2023-02-09T09:46:02.009Z,102620.25
2023-02-09T09:48:41.828Z,102605.53
2023-02-09T09:51:36.897Z,102614.56
2023-02-09T09:54:05.285Z,102607.50
2023-02-09T09:56:32.608Z,102582.59
2023-02-09T09:59:00.253Z,102571.03
2023-02-09T10:01:30.342Z,102572.69
2023-02-09T10:03:59.237Z,102570.78
2023-02-09T10:06:30.896Z,102560.81
2023-02-09T10:09:15.052Z,102572.94
2023-02-09T10:11:47.700Z,102589.56
2023-02-09T10:14:15.836Z,102591.47
2023-02-09T10:16:43.731Z,102576.06
2023-02-09T10:19:22.449Z,102581.66
2023-02-09T10:21:49.124Z,102594.16
2023-02-09T10:24:26.936Z,102605.09
2023-02-09T10:27:07.612Z,102601.16
2023-02-09T10:29:35.329Z,102600.63
2023-02-09T10:32:35.588Z,102592.38
2023-02-09T10:35:08.808Z,102585.38
2023-02-09T10:37:38.714Z,102581.44
2023-02-09T10:40:16.493Z,102585.06
2023-02-09T10:42:58.076Z,102580.25
2023-02-09T10:45:41.154Z,102575.25
2023-02-09T10:48:13.740Z,102571.97
2023-02-09T10:51:00.833Z,102578.59
2023-02-09T10:53:35.177Z,102588.28
2023-02-09T10:56:23.615Z,102589.56
2023-02-09T10:58:59.352Z,102572.34
2023-02-09T11:01:29.074Z,102581.44
2023-02-09T11:04:02.438Z,102573.16
2023-02-09T11:06:34.194Z,102573.34
2023-02-09T11:09:13.479Z,102573.44
2023-02-09T11:11:41.334Z,102569.41
2023-02-09T11:14:16.488Z,102575.16
2023-02-09T11:16:46.226Z,102577.19
2023-02-09T11:19:36.458Z,102594.25
2023-02-09T11:22:40.168Z,102583.34
2023-02-09T11:25:26.696Z,102589.13
2023-02-09T11:28:12.148Z,102590.00
2023-02-09T11:31:03.544Z,102581.81
2023-02-09T11:34:07.985Z,102575.44
2023-02-09T11:36:42.891Z,102580.59
2023-02-09T11:39:27.466Z,102581.88
2023-02-09T11:42:22.690Z,102563.22
2023-02-09T11:44:57.677Z,102572.22
2023-02-09T11:47:34.136Z,102565.53
2023-02-09T11:50:04.844Z,102563.88
2023-02-09T11:52:39.603Z,102560.03
2023-02-09T11:55:23.429Z,102569.88
2023-02-09T11:57:54.477Z,102563.41
2023-02-09T12:00:27.006Z,102552.25
2023-02-09T12:03:04.707Z,102541.84
2023-02-09T12:05:31.506Z,102535.75
2023-02-09T12:08:25.746Z,102532.38
2023-02-09T12:10:55.241Z,102544.81
2023-02-09T12:13:24.798Z,102548.97
2023-02-09T12:15:54.905Z,102547.81
2023-02-09T12:18:24.053Z,102553.91
2023-02-09T12:20:57.271Z,102541.16
2023-02-09T12:23:33.686Z,102552.38
2023-02-09T12:26:01.857Z,102562.16
2023-02-09T12:28:31.434Z,102559.66
2023-02-09T12:30:58.188Z,102565.47
2023-02-09T12:33:24.916Z,102562.75
2023-02-09T12:36:09.810Z,102565.19
2023-02-09T12:38:51.562Z,102575.16
2023-02-09T12:41:25.282Z,102568.22
2023-02-09T12:44:12.934Z,102558.06
2023-02-09T12:46:46.755Z,102564.72
2023-02-09T12:49:20.629Z,102572.94
2023-02-09T12:51:50.310Z,102556.78
2023-02-09T12:54:32.942Z,102564.66
2023-02-09T12:57:15.543Z,102557.41
2023-02-09T13:00:10.072Z,102556.06
2023-02-09T13:02:44.750Z,102546.88
2023-02-09T13:05:18.011Z,102537.69
2023-02-09T13:08:18.790Z,102539.09
2023-02-09T13:11:03.977Z,102535.84
2023-02-09T13:13:36.303Z,102544.56
2023-02-09T13:16:03.255Z,102542.19
2023-02-09T13:18:55.574Z,102541.50
2023-02-09T13:21:36.861Z,102531.78
2023-02-09T13:24:09.238Z,102537.25
2023-02-09T13:26:48.914Z,102522.94
2023-02-09T13:29:24.213Z,102516.47
2023-02-09T13:32:15.382Z,102523.00
2023-02-09T13:34:56.119Z,102522.28
2023-02-09T13:37:25.818Z,102517.91
2023-02-09T13:40:00.684Z,102524.00
2023-02-09T13:42:29.771Z,102519.75
2023-02-09T13:44:58.750Z,102526.38
2023-02-09T13:47:26.971Z,102526.63
2023-02-09T13:50:00.042Z,102526.84
2023-02-09T13:52:32.897Z,102540.78
2023-02-09T13:55:13.036Z,102536.00
2023-02-09T13:57:42.551Z,102543.00
2023-02-09T14:00:12.515Z,102545.66
2023-02-09T14:02:51.648Z,102536.28
2023-02-09T14:05:30.683Z,102537.09
2023-02-09T14:07:57.647Z,102536.00
2023-02-09T14:10:24.824Z,102527.78
2023-02-09T14:13:06.962Z,102526.97
2023-02-09T14:15:53.661Z,102526.53
2023-02-09T14:18:20.215Z,102531.28
2023-02-09T14:20:59.198Z,102521.22
2023-02-09T14:23:27.346Z,102537.63
2023-02-09T14:26:03.604Z,102538.31
2023-02-09T14:28:30.557Z,102538.88
2023-02-09T14:30:57.926Z,102537.47
2023-02-09T14:33:24.979Z,102533.53
2023-02-09T14:35:56.575Z,102538.25
2023-02-09T14:38:36.240Z,102538.88
2023-02-09T14:41:18.114Z,102538.25
2023-02-09T14:43:44.771Z,102537.44
2023-02-09T14:46:11.370Z,102529.00
2023-02-09T14:48:38.110Z,102534.19
2023-02-09T14:51:13.623Z,102532.94
2023-02-09T14:53:40.279Z,102538.78
2023-02-09T14:56:15.412Z,102544.88
2023-02-09T14:58:41.984Z,102541.00
2023-02-09T15:01:09.482Z,102540.19
2023-02-09T15:03:36.171Z,102541.78
2023-02-09T15:06:04.558Z,102545.59
2023-02-09T15:08:35.104Z,102544.09
2023-02-09T15:11:24.514Z,102535.84
2023-02-09T15:13:53.470Z,102542.28
2023-02-09T15:16:20.151Z,102535.34
2023-02-09T15:18:46.805Z,102547.28
2023-02-09T15:21:13.485Z,102551.72
2023-02-09T15:23:40.113Z,102553.09
2023-02-09T15:26:09.440Z,102549.94
2023-02-09T15:28:36.123Z,102545.13
2023-02-09T15:31:02.734Z,102546.69
2023-02-09T15:33:29.686Z,102544.13
2023-02-09T15:36:00.033Z,102544.28
2023-02-09T15:38:27.709Z,102550.59
2023-02-09T15:41:12.733Z,102554.31
2023-02-09T15:43:57.598Z,102558.56
2023-02-09T15:46:42.802Z,102559.38
2023-02-09T15:49:09.444Z,102567.69
2023-02-09T15:51:37.780Z,102569.50
2023-02-09T15:54:12.737Z,102568.38
2023-02-09T15:56:39.628Z,102573.47
2023-02-09T15:59:06.466Z,102573.34
2023-02-09T16:01:34.376Z,102584.84
2023-02-09T16:04:12.908Z,102584.56
2023-02-09T16:06:43.596Z,102581.09
2023-02-09T16:09:19.753Z,102585.09
2023-02-09T16:11:48.277Z,102604.44
2023-02-09T16:14:23.541Z,102610.94
2023-02-09T16:16:50.490Z,102611.03
2023-02-09T16:19:17.900Z,102611.16
2023-02-09T16:21:50.613Z,102612.47
2023-02-09T16:24:37.835Z,102618.94
2023-02-09T16:27:23.293Z,102628.91
2023-02-09T16:29:50.044Z,102630.25
2023-02-09T16:32:18.474Z,102629.13
2023-02-09T16:34:45.322Z,102628.13
2023-02-09T16:37:25.170Z,102638.03
2023-02-09T16:39:51.756Z,102639.16
2023-02-09T16:42:19.483Z,102633.50
2023-02-09T16:44:46.081Z,102647.72
2023-02-09T16:47:18.995Z,102648.56
2023-02-09T16:49:54.847Z,102655.72
2023-02-09T16:52:25.885Z,102653.91
2023-02-09T16:54:56.255Z,102651.69
2023-02-09T16:57:24.299Z,102657.38
2023-02-09T16:59:51.930Z,102659.38
2023-02-09T17:02:33.624Z,102669.66
2023-02-09T17:05:01.832Z,102664.31
2023-02-09T17:07:31.558Z,102658.31
2023-02-09T17:09:59.956Z,102656.50
2023-02-09T17:12:27.526Z,102656.78
2023-02-09T17:14:54.572Z,102657.63
2023-02-09T17:17:21.603Z,102657.72
2023-02-09T17:19:49.046Z,102660.88
2023-02-09T17:22:16.087Z,102663.13
2023-02-09T17:24:42.688Z,102666.34
2023-02-09T17:27:10.319Z,102665.13
2023-02-09T17:29:36.947Z,102662.19
2023-02-09T17:32:05.338Z,102671.00
2023-02-09T17:34:32.058Z,102671.91
2023-02-09T17:36:58.825Z,102679.53
2023-02-09T17:39:25.432Z,102676.19
2023-02-09T17:41:52.110Z,102679.53
2023-02-09T17:44:46.158Z,102683.84
2023-02-09T17:47:07.694Z,102675.72
2023-02-09T17:49:34.876Z,102678.31
2023-02-09T17:52:01.542Z,102683.72
2023-02-09T17:54:28.411Z,102689.63
2023-02-09T17:56:55.058Z,102692.78
2023-02-09T17:59:21.764Z,102694.41
2023-02-09T18:01:55.099Z,102699.69
2023-02-09T18:04:27.251Z,102696.38
2023-02-09T18:06:56.579Z,102703.69
2023-02-09T18:09:24.191Z,102710.31
2023-02-09T18:11:50.715Z,102704.16
2023-02-09T18:14:17.966Z,102715.00
2023-02-09T18:16:45.459Z,102716.31
2023-02-09T18:19:12.584Z,102712.38
2023-02-09T18:21:45.017Z,102712.16
2023-02-09T18:24:11.761Z,102716.91
2023-02-09T18:26:38.460Z,102718.75
2023-02-09T18:29:05.082Z,102716.59
2023-02-09T18:31:31.666Z,102721.56
2023-02-09T18:33:58.610Z,102724.22
2023-02-09T18:36:25.188Z,102726.72
2023-02-09T18:38:53.437Z,102721.38
2023-02-09T18:41:20.107Z,102723.41
2023-02-09T18:43:46.779Z,102733.09
2023-02-09T18:46:14.256Z,102730.75
2023-02-09T18:48:41.067Z,102738.63
2023-02-09T18:51:08.683Z,102746.28
2023-02-09T18:53:37.551Z,102744.44
2023-02-09T18:56:04.428Z,102749.97
2023-02-09T18:58:31.221Z,102755.03
2023-02-09T19:00:58.822Z,102750.22
2023-02-09T19:03:25.708Z,102753.28
2023-02-09T19:05:52.410Z,102757.03
2023-02-09T19:08:19.039Z,102752.63
2023-02-09T19:10:46.128Z,102758.53
2023-02-09T19:13:12.753Z,102753.19
2023-02-09T19:15:40.877Z,102752.56
2023-02-09T19:18:07.961Z,102756.25
2023-02-09T19:20:34.649Z,102762.06
2023-02-09T19:23:02.436Z,102770.16
2023-02-09T19:25:29.797Z,102775.09
2023-02-09T19:27:56.768Z,102772.19
2023-02-09T19:30:27.473Z,102766.78
2023-02-09T19:32:57.991Z,102773.34
2023-02-09T19:35:24.723Z,102775.09
2023-02-09T19:37:56.051Z,102781.00
2023-02-09T19:40:36.295Z,102779.69
2023-02-09T19:43:04.228Z,102780.31
2023-02-09T19:45:36.612Z,102785.09
2023-02-09T19:48:08.128Z,102782.25
2023-02-09T19:50:37.825Z,102784.38
2023-02-09T19:53:07.967Z,102792.81
2023-02-09T19:55:35.026Z,102801.31
2023-02-09T19:58:01.643Z,102793.41
2023-02-09T20:00:28.463Z,102799.44
2023-02-09T20:02:55.343Z,102798.44
2023-02-09T20:05:22.056Z,102799.44
2023-02-09T20:07:49.333Z,102794.09
2023-02-09T20:10:15.948Z,102805.72
2023-02-09T20:12:42.558Z,102807.75
2023-02-09T20:15:09.259Z,102807.38
2023-02-09T20:17:36.183Z,102806.78
2023-02-09T20:20:04.233Z,102803.72
2023-02-09T20:22:31.026Z,102793.72
2023-02-09T20:24:57.688Z,102804.97
2023-02-09T20:27:24.605Z,102808.13
2023-02-09T20:29:51.550Z,102809.72
2023-02-09T20:32:18.565Z,102817.09
2023-02-09T20:34:45.268Z,102816.66
2023-02-09T20:37:12.123Z,102819.28
2023-02-09T20:39:38.722Z,102815.88
2023-02-09T20:42:24.594Z,102818.28
2023-02-09T20:45:09.960Z,102820.69
2023-02-09T20:47:36.684Z,102819.78
2023-02-09T20:50:04.926Z,102827.03
2023-02-09T20:52:31.521Z,102824.41
2023-02-09T20:54:58.510Z,102819.84
2023-02-09T20:57:29.413Z,102821.50
2023-02-09T21:00:00.039Z,102820.28
2023-02-09T21:02:27.043Z,102818.97
2023-02-09T21:04:55.543Z,102817.91
2023-02-09T21:07:22.105Z,102813.75
2023-02-09T21:09:48.977Z,102807.16
2023-02-09T21:12:15.730Z,102808.75
2023-02-09T21:14:46.423Z,102807.97
2023-02-09T21:17:13.794Z,102819.78
2023-02-09T21:19:40.571Z,102823.97
2023-02-09T21:22:07.449Z,102820.28
2023-02-09T21:24:34.165Z,102823.72
2023-02-09T21:27:00.865Z,102816.97
2023-02-09T21:29:29.272Z,102811.16
2023-02-09T21:31:56.855Z,102814.34
2023-02-09T21:34:23.556Z,102821.03
2023-02-09T21:36:50.386Z,102821.25
2023-02-09T21:39:16.997Z,102819.69
2023-02-09T21:42:02.307Z,102821.06
2023-02-09T21:44:29.334Z,102818.69
2023-02-09T21:46:55.964Z,102820.25
2023-02-09T21:49:22.945Z,102823.84
2023-02-09T21:51:49.586Z,102823.91
2023-02-09T21:54:17.321Z,102822.25
2023-02-09T21:56:44.451Z,102820.44
2023-02-09T21:59:11.590Z,102814.03
2023-02-09T22:01:38.403Z,102805.16
2023-02-09T22:04:05.204Z,102814.13
2023-02-09T22:06:31.965Z,102811.50
2023-02-09T22:09:02.416Z,102817.59
2023-02-09T22:11:29.660Z,102821.13
2023-02-09T22:13:56.601Z,102812.41
2023-02-09T22:16:23.892Z,102819.59
2023-02-09T22:18:50.844Z,102823.50
2023-02-09T22:21:18.064Z,102819.78
2023-02-09T22:23:44.842Z,102826.72
2023-02-09T22:26:13.775Z,102824.09
2023-02-09T22:28:41.515Z,102822.72
2023-02-09T22:31:14.753Z,102823.03
2023-02-09T22:33:41.763Z,102824.69
2023-02-09T22:36:12.524Z,102826.09
2023-02-09T22:38:39.194Z,102817.66
2023-02-09T22:41:23.422Z,102823.06
2023-02-09T22:43:57.086Z,102826.78
2023-02-09T22:46:26.230Z,102832.22
2023-02-09T22:48:54.496Z,102829.53
2023-02-09T22:51:21.441Z,102837.03
2023-02-09T22:53:48.265Z,102839.94
2023-02-09T22:56:15.161Z,102840.13
2023-02-09T22:58:42.485Z,102834.03
2023-02-09T23:01:10.240Z,102836.84
2023-02-09T23:03:38.075Z,102828.75
2023-02-09T23:06:07.725Z,102843.72
2023-02-09T23:08:35.640Z,102845.00
2023-02-09T23:11:08.179Z,102835.25
2023-02-09T23:13:36.615Z,102844.53
2023-02-09T23:16:23.461Z,102841.78
2023-02-09T23:18:58.418Z,102850.47
2023-02-09T23:21:31.514Z,102848.59
2023-02-09T23:23:58.958Z,102854.78
2023-02-09T23:26:26.304Z,102850.19
2023-02-09T23:28:57.167Z,102854.06
2023-02-09T23:31:25.084Z,102855.00
2023-02-09T23:33:51.978Z,102855.59
2023-02-09T23:36:27.818Z,102863.09
2023-02-09T23:38:56.410Z,102862.28
2023-02-09T23:41:24.264Z,102857.34
2023-02-09T23:43:51.835Z,102872.81
2023-02-09T23:46:22.298Z,102868.41
2023-02-09T23:48:50.035Z,102878.34
2023-02-09T23:51:19.158Z,102885.97
2023-02-09T23:53:47.502Z,102885.41
2023-02-09T23:56:16.320Z,102893.22
2023-02-09T23:58:45.045Z,102884.22
